Long Pine, Nebraska
Current Conditions -  °F | °C
As of 10:55 AM on Friday 24 Oct 2014 (Local Time) from KANW Reporting Station
Clear Clear  
Wind Chill: 58°   Ceiling: Unl
Heat Index: 58°   Visibility: 10mi
Dew Point: 39°   Wind: 5mph
Humidity: 50%   Direction: 280°W
Pressure: 29.97"   Gusts: NA
Location:  42.54°N, 99.7°W
Report Text: KANW 241555Z AUTO 28004KT 10SM CLR 15/04 A2997 RMK AO2 T01450041
Loading
Personal Weather Stations






























Interactive Weather Map
Tropical Storm Tracking
New forecast layout! Learn more

10-Day Weather Forecast

Advertisements
Track Severe Weather on mobile